createdAt,value
2022-10-20T00:03:47.481Z,13.01
2022-10-20T00:08:50.231Z,12.86
2022-10-20T00:13:54.338Z,12.94
2022-10-20T00:18:58.212Z,12.96
2022-10-20T00:24:01.838Z,12.94
2022-10-20T00:29:05.078Z,12.87
2022-10-20T00:34:07.574Z,12.94
2022-10-20T00:39:09.752Z,12.78
2022-10-20T00:44:49.523Z,12.86
2022-10-20T00:49:52.243Z,12.65
2022-10-20T00:54:54.529Z,12.67
2022-10-20T00:59:56.886Z,12.68
2022-10-20T01:04:59.345Z,12.70
2022-10-20T01:10:02.955Z,12.75
2022-10-20T01:15:33.237Z,12.80
2022-10-20T01:20:56.426Z,12.57
2022-10-20T01:26:32.483Z,12.57
2022-10-20T01:31:49.341Z,12.58
2022-10-20T01:37:05.314Z,12.46
2022-10-20T01:42:20.286Z,12.45
2022-10-20T01:47:25.791Z,12.46
2022-10-20T01:52:29.576Z,12.34
2022-10-20T01:57:56.493Z,12.42
2022-10-20T02:03:20.894Z,12.44
2022-10-20T02:08:35.141Z,12.50
2022-10-20T02:13:40.142Z,12.48
2022-10-20T02:18:44.445Z,12.55
2022-10-20T02:23:50.079Z,12.44
2022-10-20T02:29:01.135Z,12.47
2022-10-20T02:34:04.183Z,12.40
2022-10-20T02:39:06.780Z,12.50
2022-10-20T02:44:09.186Z,12.32
2022-10-20T02:49:11.405Z,12.27
2022-10-20T02:54:13.685Z,11.81
2022-10-20T02:59:20.082Z,12.01
2022-10-20T03:04:22.369Z,11.48
2022-10-20T03:09:24.666Z,11.63
2022-10-20T03:14:26.852Z,11.39
2022-10-20T03:19:29.042Z,11.54
2022-10-20T03:24:31.320Z,11.50
2022-10-20T03:29:33.599Z,11.47
2022-10-20T03:34:35.819Z,11.38
2022-10-20T03:39:38.015Z,11.65
2022-10-20T03:44:40.394Z,11.68
2022-10-20T03:49:42.706Z,11.56
2022-10-20T03:54:44.922Z,11.61
2022-10-20T03:59:47.282Z,11.65
2022-10-20T04:04:49.485Z,11.58
2022-10-20T04:09:51.769Z,11.63
2022-10-20T04:14:54.130Z,11.71
2022-10-20T04:19:56.328Z,11.63
2022-10-20T04:24:58.764Z,11.43
2022-10-20T04:30:01.268Z,11.66
2022-10-20T04:35:04.088Z,11.45
2022-10-20T04:40:07.531Z,11.46
2022-10-20T04:45:10.278Z,11.52
2022-10-20T04:50:12.681Z,11.43
2022-10-20T04:55:15.535Z,11.54
2022-10-20T05:00:17.791Z,11.39
2022-10-20T05:05:19.975Z,11.47
2022-10-20T05:10:22.356Z,11.42
2022-10-20T05:15:24.551Z,11.50
2022-10-20T05:20:26.749Z,11.40
2022-10-20T05:25:36.551Z,11.68
2022-10-20T05:30:39.226Z,11.62
2022-10-20T05:35:41.721Z,11.65
2022-10-20T05:40:44.147Z,11.80
2022-10-20T05:45:46.323Z,11.91
2022-10-20T05:50:48.524Z,11.95
2022-10-20T05:55:50.737Z,12.07
2022-10-20T06:00:54.240Z,12.09
2022-10-20T06:06:00.418Z,12.35
2022-10-20T06:11:04.603Z,12.46
2022-10-20T06:16:09.735Z,12.59
2022-10-20T06:21:23.395Z,12.72
2022-10-20T06:26:30.082Z,12.86
2022-10-20T06:31:33.926Z,13.05
2022-10-20T06:36:38.316Z,13.17
2022-10-20T06:41:40.681Z,13.25
2022-10-20T06:46:42.900Z,13.22
2022-10-20T06:51:45.302Z,13.52
2022-10-20T06:56:47.655Z,13.59
2022-10-20T07:01:50.103Z,13.61
2022-10-20T07:06:52.329Z,13.76
2022-10-20T07:11:54.634Z,13.97
2022-10-20T07:16:56.971Z,13.99
2022-10-20T07:21:59.189Z,14.07
2022-10-20T07:27:01.381Z,14.23
2022-10-20T07:32:03.634Z,14.60
2022-10-20T07:37:05.958Z,14.74
2022-10-20T07:42:08.398Z,15.08
2022-10-20T07:47:10.726Z,15.25
2022-10-20T07:52:13.119Z,15.47
2022-10-20T07:57:15.529Z,15.61
2022-10-20T08:02:18.131Z,15.80
2022-10-20T08:07:20.326Z,15.88
2022-10-20T08:12:22.570Z,16.11
2022-10-20T08:17:25.875Z,16.37
2022-10-20T08:22:28.108Z,16.43
2022-10-20T08:27:31.357Z,16.61
2022-10-20T08:32:33.974Z,16.92
2022-10-20T08:37:37.326Z,17.11
2022-10-20T08:42:45.446Z,17.22
2022-10-20T08:47:50.001Z,17.48
2022-10-20T08:52:56.659Z,17.53
2022-10-20T08:58:03.453Z,17.82
2022-10-20T09:03:25.023Z,18.07
2022-10-20T09:08:31.492Z,18.10
2022-10-20T09:13:34.661Z,18.24
2022-10-20T09:18:37.125Z,18.50
2022-10-20T09:23:45.370Z,18.55
2022-10-20T09:29:12.028Z,18.80
2022-10-20T09:34:34.742Z,19.11
2022-10-20T09:39:54.920Z,19.21
2022-10-20T09:45:01.952Z,19.57
2022-10-20T09:50:09.286Z,19.72
2022-10-20T09:55:34.450Z,19.92
2022-10-20T10:00:49.637Z,19.98
2022-10-20T10:05:59.924Z,20.09
2022-10-20T10:11:14.656Z,20.33
2022-10-20T10:16:20.751Z,20.49
2022-10-20T10:21:23.400Z,20.63
2022-10-20T10:26:43.576Z,20.78
2022-10-20T10:31:57.714Z,20.89
2022-10-20T10:37:00.292Z,20.93
2022-10-20T10:42:39.837Z,21.09
2022-10-20T10:48:09.194Z,21.13
2022-10-20T10:53:20.224Z,21.17
2022-10-20T10:58:25.559Z,21.32
2022-10-20T11:04:03.088Z,21.41
2022-10-20T11:09:49.401Z,21.53
2022-10-20T11:15:47.205Z,21.79
2022-10-20T11:21:09.976Z,22.05
2022-10-20T11:26:29.151Z,22.11
2022-10-20T11:31:41.397Z,22.02
2022-10-20T11:36:47.960Z,22.10
2022-10-20T11:41:52.731Z,22.15
2022-10-20T11:47:09.186Z,22.09
2022-10-20T11:52:48.740Z,22.17
2022-10-20T11:58:03.014Z,22.34
2022-10-20T12:03:38.871Z,22.58
2022-10-20T12:09:02.795Z,22.52
2022-10-20T12:14:17.316Z,22.70
2022-10-20T12:19:30.026Z,22.55
2022-10-20T12:24:40.883Z,22.76
2022-10-20T12:29:43.024Z,22.98
2022-10-20T12:34:45.511Z,23.00
2022-10-20T12:39:48.277Z,23.23
2022-10-20T12:44:51.277Z,23.42
2022-10-20T12:50:01.818Z,23.60
2022-10-20T12:55:03.973Z,23.86
2022-10-20T13:00:08.287Z,23.93
2022-10-20T13:05:10.436Z,24.24
2022-10-20T13:10:30.481Z,24.39
2022-10-20T13:15:59.147Z,24.43
2022-10-20T13:21:26.539Z,24.49
2022-10-20T13:26:45.714Z,24.49
2022-10-20T13:32:23.572Z,24.62
2022-10-20T13:37:40.548Z,24.94
2022-10-20T13:42:57.317Z,24.96
2022-10-20T13:48:11.579Z,25.10
2022-10-20T13:53:26.284Z,25.09
2022-10-20T13:58:28.698Z,25.22
2022-10-20T14:03:33.229Z,25.28
2022-10-20T14:08:44.226Z,25.44
2022-10-20T14:13:47.048Z,25.50
2022-10-20T14:19:13.412Z,25.54
2022-10-20T14:24:34.527Z,25.68
2022-10-20T14:29:40.385Z,25.74
2022-10-20T14:34:58.174Z,25.85
2022-10-20T14:40:02.937Z,26.03
2022-10-20T14:45:05.844Z,25.95
2022-10-20T14:50:19.361Z,25.81
2022-10-20T14:55:35.538Z,25.47
2022-10-20T15:00:37.956Z,25.18
2022-10-20T15:05:45.581Z,24.80
2022-10-20T15:10:48.381Z,24.20
2022-10-20T15:15:51.057Z,23.71
2022-10-20T15:20:54.623Z,23.41
2022-10-20T15:26:03.293Z,23.10
2022-10-20T15:31:28.688Z,22.73
2022-10-20T15:36:34.189Z,22.44
2022-10-20T15:41:37.292Z,22.16
2022-10-20T15:46:39.574Z,21.91
2022-10-20T15:51:44.877Z,21.68
2022-10-20T15:56:47.571Z,21.49
2022-10-20T16:01:49.935Z,21.14
2022-10-20T16:06:57.699Z,21.02
2022-10-20T16:12:02.594Z,20.85
2022-10-20T16:17:05.022Z,20.70
2022-10-20T16:22:07.481Z,20.61
2022-10-20T16:27:10.114Z,20.40
2022-10-20T16:32:12.449Z,20.37
2022-10-20T16:37:14.834Z,20.18
2022-10-20T16:42:17.118Z,20.10
2022-10-20T16:47:19.445Z,19.89
2022-10-20T16:52:21.750Z,19.90
2022-10-20T16:57:23.951Z,19.81
2022-10-20T17:02:26.146Z,19.60
2022-10-20T17:07:28.377Z,19.63
2022-10-20T17:12:30.629Z,19.52
2022-10-20T17:17:32.839Z,19.24
2022-10-20T17:22:35.515Z,19.27
2022-10-20T17:27:38.003Z,19.28
2022-10-20T17:32:40.426Z,19.10
2022-10-20T17:37:42.622Z,19.12
2022-10-20T17:42:45.045Z,18.88
2022-10-20T17:47:47.298Z,18.86
2022-10-20T17:52:49.658Z,18.74
2022-10-20T17:57:52.329Z,18.63
2022-10-20T18:02:54.594Z,18.55
2022-10-20T18:07:56.951Z,18.59
2022-10-20T18:13:00.085Z,18.46
2022-10-20T18:18:02.493Z,18.27
2022-10-20T18:23:04.703Z,18.17
2022-10-20T18:28:07.061Z,17.88
2022-10-20T18:33:09.611Z,17.75
2022-10-20T18:38:11.825Z,17.72
2022-10-20T18:43:14.026Z,17.42
2022-10-20T18:48:16.967Z,17.38
2022-10-20T18:53:19.324Z,17.41
2022-10-20T18:58:21.873Z,17.20
2022-10-20T19:03:24.363Z,17.11
2022-10-20T19:08:26.828Z,17.08
2022-10-20T19:13:30.078Z,17.13
2022-10-20T19:18:32.637Z,16.99
2022-10-20T19:23:37.945Z,16.91
2022-10-20T19:28:44.401Z,16.94
2022-10-20T19:33:48.789Z,16.86
2022-10-20T19:38:51.253Z,16.74
2022-10-20T19:43:53.826Z,16.67
2022-10-20T19:48:57.797Z,16.59
2022-10-20T19:54:00.569Z,16.46
2022-10-20T19:59:04.615Z,16.36
2022-10-20T20:04:07.184Z,16.13
2022-10-20T20:09:10.798Z,16.17
2022-10-20T20:14:15.882Z,16.07
2022-10-20T20:19:18.285Z,16.09
2022-10-20T20:24:20.632Z,15.98
2022-10-20T20:29:23.007Z,15.93
2022-10-20T20:34:25.416Z,15.99
2022-10-20T20:39:27.813Z,15.82
2022-10-20T20:44:30.032Z,15.75
2022-10-20T20:49:32.311Z,15.69
2022-10-20T20:54:34.490Z,15.82
2022-10-20T20:59:36.907Z,15.74
2022-10-20T21:04:39.166Z,15.53
2022-10-20T21:09:41.561Z,15.46
2022-10-20T21:14:44.051Z,15.35
2022-10-20T21:19:46.239Z,15.30
2022-10-20T21:24:48.501Z,15.28
2022-10-20T21:29:51.519Z,15.22
2022-10-20T21:34:55.767Z,15.12
2022-10-20T21:39:57.950Z,15.12
2022-10-20T21:45:00.119Z,15.14
2022-10-20T21:50:02.413Z,15.04
2022-10-20T21:55:05.399Z,15.01
2022-10-20T22:00:09.386Z,15.02
2022-10-20T22:05:11.784Z,14.91
2022-10-20T22:10:14.320Z,14.93
2022-10-20T22:15:16.879Z,14.83
2022-10-20T22:20:19.623Z,14.44
2022-10-20T22:25:22.097Z,14.48
2022-10-20T22:30:24.239Z,14.55
2022-10-20T22:35:26.730Z,14.65
2022-10-20T22:40:28.925Z,14.61
2022-10-20T22:45:32.563Z,14.69
2022-10-20T22:50:34.828Z,14.45
2022-10-20T22:55:37.294Z,14.40
2022-10-20T23:00:40.803Z,14.35
2022-10-20T23:05:43.180Z,14.12
2022-10-20T23:10:45.484Z,14.11
2022-10-20T23:15:52.649Z,14.13
2022-10-20T23:20:57.374Z,14.18
2022-10-20T23:26:03.662Z,14.14
2022-10-20T23:31:18.749Z,14.11
2022-10-20T23:36:21.367Z,14.06
2022-10-20T23:41:23.638Z,13.89
2022-10-20T23:46:26.006Z,13.97
2022-10-20T23:51:28.531Z,13.98
2022-10-20T23:56:30.779Z,13.96
